Time;durP1;ratioP1;P1;durP2;ratioP2;P2;SDS_P1;SDS_P2;PMS_P1;PMS_P2;Temp;Humidity;BMP_temperature;BMP_pressure;BME280_temperature;BME280_humidity;BME280_pressure;Samples;Min_cycle;Max_cycle;Signal;HPM_P1;HPM_P2
2022/09/17 00:02:29;;;;;;;1.25;0.43;;;21.10;51.70;;;;;;20651016;28;20547;-75
2022/09/17 00:12:30;;;;;;;2.63;0.20;;;21.10;51.80;;;;;;20634779;28;20436;-73
2022/09/17 00:22:31;;;;;;;1.73;0.20;;;21.00;51.90;;;;;;20649577;28;20038;-73
2022/09/17 00:32:31;;;;;;;0.63;0.20;;;21.00;52.00;;;;;;20649905;28;20539;-72
2022/09/17 00:42:32;;;;;;;1.58;0.60;;;21.00;52.20;;;;;;20632070;28;20125;-73
2022/09/17 00:52:54;;;;;;;0.63;0.57;;;21.00;52.30;;;;;;20613638;28;20243;-75
2022/09/17 01:02:57;;;;;;;0.88;0.40;;;21.00;52.50;;;;;;20644793;28;20046;-73
2022/09/17 01:13:38;;;;;;;1.48;0.40;;;21.00;52.60;;;;;;20645989;28;20030;-74
2022/09/17 01:23:58;;;;;;;2.58;0.32;;;20.90;52.70;;;;;;20662129;28;20400;-73
2022/09/17 01:34:08;;;;;;;1.95;0.70;;;21.00;52.90;;;;;;20967446;23;20038;-73
2022/09/17 01:44:22;;;;;;;1.38;0.40;;;21.00;53.00;;;;;;20564425;28;20046;-73
2022/09/17 01:54:31;;;;;;;1.58;0.82;;;20.90;53.00;;;;;;20595707;28;20540;-73
2022/09/17 02:04:42;;;;;;;2.58;0.60;;;20.90;53.00;;;;;;20594222;28;20047;-72
2022/09/17 02:14:49;;;;;;;1.38;0.47;;;20.90;53.10;;;;;;20578707;28;20038;-73
2022/09/17 02:25:28;;;;;;;3.30;0.47;;;21.10;52.90;;;;;;20562041;28;20045;-73
2022/09/17 02:35:30;;;;;;;2.83;0.68;;;21.40;52.30;;;;;;20536828;28;20058;-73
2022/09/17 02:45:51;;;;;;;3.70;0.70;;;21.60;51.60;;;;;;20592020;28;20093;-73
2022/09/17 02:56:19;;;;;;;5.28;1.13;;;21.90;51.10;;;;;;20575102;28;20377;-73
2022/09/17 03:06:19;;;;;;;3.20;0.85;;;22.20;50.50;;;;;;20590736;28;20046;-73
2022/09/17 03:16:20;;;;;;;2.20;0.80;;;22.30;50.00;;;;;;20576145;28;20050;-73
2022/09/17 03:26:20;;;;;;;3.15;0.70;;;22.00;50.50;;;;;;20590735;28;20113;-72
2022/09/17 03:36:21;;;;;;;5.13;1.02;;;21.70;51.00;;;;;;20574349;28;20047;-72
2022/09/17 03:46:21;;;;;;;2.90;1.10;;;21.40;51.60;;;;;;20589857;28;20428;-72
2022/09/17 03:56:22;;;;;;;10.73;2.28;;;21.20;52.10;;;;;;20572092;28;20042;-72
2022/09/17 04:06:23;;;;;;;3.75;1.05;;;21.00;52.50;;;;;;20585971;28;20034;-72
2022/09/17 04:16:23;;;;;;;6.82;1.08;;;21.00;52.60;;;;;;20588032;28;20058;-72
2022/09/17 04:26:24;;;;;;;4.05;1.08;;;21.60;51.40;;;;;;20587092;28;20050;-72
2022/09/17 04:36:24;;;;;;;4.15;0.98;;;21.80;50.80;;;;;;20552962;28;20061;-72
2022/09/17 04:46:25;;;;;;;4.45;1.52;;;22.20;50.00;;;;;;20569113;28;20117;-73
2022/09/17 04:56:25;;;;;;;2.22;0.95;;;22.40;49.40;;;;;;20567868;28;20054;-72
2022/09/17 05:06:26;;;;;;;4.05;1.20;;;22.40;48.90;;;;;;20549782;28;20035;-72
2022/09/17 05:16:26;;;;;;;3.38;1.17;;;22.50;48.80;;;;;;20582071;28;20515;-73
2022/09/17 05:26:28;;;;;;;4.93;0.82;;;22.50;48.70;;;;;;20549208;28;20049;-72
2022/09/17 05:36:28;;;;;;;3.72;1.23;;;22.50;48.50;;;;;;20582525;28;20054;-72
2022/09/17 05:46:29;;;;;;;3.70;0.80;;;22.50;48.50;;;;;;20564254;28;20358;-72
2022/09/17 05:56:29;;;;;;;2.85;0.75;;;22.40;48.50;;;;;;20579544;28;20453;-73
2022/09/17 06:06:30;;;;;;;3.03;0.90;;;22.40;48.60;;;;;;20576886;28;20046;-71
2022/09/17 06:16:31;;;;;;;2.75;0.90;;;22.40;48.60;;;;;;20586378;28;20138;-73
2022/09/17 06:26:31;;;;;;;2.42;0.77;;;22.30;48.60;;;;;;20579917;28;20027;-78
2022/09/17 06:36:32;;;;;;;3.70;1.17;;;22.30;48.70;;;;;;20579770;28;20085;-77
2022/09/17 06:46:33;;;;;;;3.38;0.70;;;22.30;48.80;;;;;;20578675;28;20536;-74
2022/09/17 06:56:33;;;;;;;4.95;1.08;;;22.20;48.80;;;;;;20544545;28;20445;-76
2022/09/17 07:06:34;;;;;;;3.88;0.90;;;22.20;48.90;;;;;;20577926;28;20042;-74
2022/09/17 07:16:35;;;;;;;3.67;1.13;;;22.20;48.90;;;;;;20593352;28;20403;-76
2022/09/17 07:26:36;;;;;;;4.32;0.80;;;22.20;48.90;;;;;;20566036;28;20069;-76
2022/09/17 07:36:36;;;;;;;3.90;1.08;;;22.10;48.90;;;;;;20595757;28;20035;-76
2022/09/17 07:46:37;;;;;;;2.80;0.73;;;22.10;48.90;;;;;;20586295;28;20027;-75
2022/09/17 07:56:37;;;;;;;2.22;1.33;;;22.00;49.00;;;;;;20588635;28;20043;-76
2022/09/17 08:06:39;;;;;;;2.55;1.00;;;22.00;48.90;;;;;;20590304;28;20122;-74
2022/09/17 08:16:40;;;;;;;2.45;0.80;;;22.00;48.90;;;;;;20587342;28;20385;-74
2022/09/17 08:26:41;;;;;;;8.35;1.25;;;22.00;48.90;;;;;;20582403;28;20038;-77
2022/09/17 08:36:41;;;;;;;5.38;0.80;;;22.00;48.90;;;;;;20550897;28;20097;-76
2022/09/17 08:46:47;;;;;;;2.75;1.20;;;21.90;48.70;;;;;;20584729;28;20070;-72
2022/09/17 08:56:50;;;;;;;2.95;0.70;;;21.90;48.60;;;;;;20584846;28;20090;-74
2022/09/17 09:06:58;;;;;;;4.80;0.95;;;21.90;48.60;;;;;;20567256;28;20113;-74
2022/09/17 09:16:58;;;;;;;6.18;1.20;;;22.00;48.40;;;;;;20567048;28;20034;-75
2022/09/17 09:27:14;;;;;;;5.60;1.23;;;22.00;48.10;;;;;;20565643;28;20034;-70
2022/09/17 09:37:26;;;;;;;4.93;1.17;;;22.10;47.70;;;;;;20565041;28;20042;-72
2022/09/17 09:47:52;;;;;;;4.00;1.23;;;22.20;47.40;;;;;;20580021;28;20046;-77
2022/09/17 09:58:18;;;;;;;8.60;1.23;;;22.20;47.10;;;;;;20579733;28;20035;-75
2022/09/17 10:08:19;;;;;;;4.43;1.15;;;22.30;46.90;;;;;;20576692;28;20046;-76
2022/09/17 10:18:21;;;;;;;3.83;0.98;;;22.30;46.80;;;;;;20648742;28;20033;-75
2022/09/17 10:28:32;;;;;;;3.13;0.90;;;22.40;46.50;;;;;;20617274;28;20034;-79
2022/09/17 10:38:45;;;;;;;2.80;0.80;;;22.40;46.30;;;;;;20569248;28;20405;-77
2022/09/17 10:48:53;;;;;;;4.50;1.00;;;22.40;46.00;;;;;;20561053;28;20470;-77
2022/09/17 10:59:14;;;;;;;2.15;0.95;;;22.40;45.70;;;;;;20562383;28;20129;-79
2022/09/17 11:09:25;;;;;;;1.88;0.70;;;22.40;45.40;;;;;;20598604;28;20085;-79
2022/09/17 11:19:31;;;;;;;3.20;0.63;;;22.40;45.00;;;;;;20607900;28;20043;-80
2022/09/17 11:30:04;;;;;;;3.65;0.80;;;22.40;45.00;;;;;;20624391;28;20552;-77
2022/09/17 11:40:20;;;;;;;4.63;0.63;;;22.40;45.10;;;;;;20568366;28;20039;-80
2022/09/17 11:50:26;;;;;;;3.25;0.73;;;22.50;45.20;;;;;;20576466;28;20544;-79
2022/09/17 12:00:29;;;;;;;1.65;0.50;;;22.50;45.40;;;;;;20587258;28;20046;-79
2022/09/17 12:10:50;;;;;;;2.85;1.00;;;22.50;45.60;;;;;;20568880;28;20054;-84
2022/09/17 12:20:52;;;;;;;3.92;0.80;;;22.50;45.80;;;;;;20576112;28;20042;-82
2022/09/17 12:31:04;;;;;;;3.20;0.60;;;22.50;46.00;;;;;;20584881;28;20046;-81
2022/09/17 12:41:49;;;;;;;1.38;0.50;;;22.50;46.10;;;;;;20568229;28;20039;-81
2022/09/17 12:51:59;;;;;;;1.65;0.50;;;22.50;46.30;;;;;;20445291;28;20043;-81
2022/09/17 13:02:03;;;;;;;1.48;0.40;;;22.40;46.40;;;;;;20566969;28;20066;-78
2022/09/17 13:12:34;;;;;;;0.75;0.40;;;22.40;46.50;;;;;;20532775;28;20034;-82
2022/09/17 13:22:45;;;;;;;3.03;0.88;;;22.50;46.60;;;;;;20593829;28;20035;-81
2022/09/17 13:32:47;;;;;;;2.03;0.65;;;22.40;46.70;;;;;;20571267;28;20469;-80
2022/09/17 13:42:54;;;;;;;0.55;0.32;;;22.40;46.70;;;;;;20587905;28;20041;-80
2022/09/17 13:52:55;;;;;;;4.32;0.88;;;22.40;46.90;;;;;;20616077;28;20038;-81
2022/09/17 14:02:57;;;;;;;2.20;0.80;;;22.20;47.30;;;;;;20607843;28;20042;-81
2022/09/17 14:13:16;;;;;;;5.50;1.30;;;22.10;47.70;;;;;;20550615;28;20125;-81
2022/09/17 14:23:17;;;;;;;7.72;1.30;;;22.20;47.80;;;;;;20566647;28;20046;-78
2022/09/17 14:33:20;;;;;;;4.20;1.25;;;22.20;48.00;;;;;;20568842;28;20134;-81
2022/09/17 14:43:29;;;;;;;13.35;1.67;;;22.30;48.00;;;;;;20574192;28;20049;-80
2022/09/17 14:53:29;;;;;;;6.85;1.10;;;22.30;48.70;;;;;;20566243;28;20034;-79
2022/09/17 15:03:30;;;;;;;14.43;1.95;;;22.30;48.10;;;;;;20579744;28;20039;-77
2022/09/17 15:13:34;;;;;;;9.07;1.73;;;22.30;48.30;;;;;;20570844;28;20043;-79
2022/09/17 15:23:36;;;;;;;8.93;1.37;;;22.30;48.50;;;;;;20606069;28;20335;-80
2022/09/17 15:33:36;;;;;;;8.10;1.08;;;22.30;48.50;;;;;;20609568;28;20461;-81
2022/09/17 15:43:37;;;;;;;2.95;0.98;;;22.20;48.50;;;;;;20602063;28;20038;-80
2022/09/17 15:53:38;;;;;;;4.88;0.90;;;22.20;48.50;;;;;;20589585;28;20039;-77
2022/09/17 16:03:39;;;;;;;3.90;0.77;;;22.20;48.60;;;;;;20574816;28;20034;-78
2022/09/17 16:13:40;;;;;;;2.72;0.90;;;22.20;48.60;;;;;;20594080;28;20038;-74
2022/09/17 16:23:40;;;;;;;1.77;0.70;;;22.20;48.70;;;;;;20588346;28;20125;-76
2022/09/17 16:33:41;;;;;;;2.70;1.00;;;22.10;48.70;;;;;;20627650;28;20602;-76
2022/09/17 16:43:41;;;;;;;2.13;0.70;;;22.10;48.90;;;;;;20575243;28;20301;-78
2022/09/17 16:53:42;;;;;;;2.70;0.77;;;22.00;48.90;;;;;;20582856;28;20113;-78
2022/09/17 17:03:44;;;;;;;2.72;0.50;;;22.00;49.00;;;;;;20564678;28;20043;-78
2022/09/17 17:13:45;;;;;;;1.23;0.70;;;22.00;49.10;;;;;;20583337;28;20628;-78
2022/09/17 17:23:52;;;;;;;1.17;0.60;;;21.90;49.20;;;;;;21003598;28;20366;-77
2022/09/17 17:33:53;;;;;;;2.17;0.73;;;21.90;49.30;;;;;;21056325;28;20123;-77
2022/09/17 17:43:54;;;;;;;3.30;0.85;;;21.80;49.40;;;;;;20935561;28;20491;-77
2022/09/17 17:53:54;;;;;;;2.95;0.95;;;21.80;49.50;;;;;;21009828;28;20032;-77
2022/09/17 18:03:56;;;;;;;3.15;0.55;;;21.80;49.60;;;;;;20974933;28;20502;-79
2022/09/17 18:13:59;;;;;;;1.85;0.60;;;21.80;49.70;;;;;;20952623;28;20051;-80
2022/09/17 18:23:59;;;;;;;4.25;0.95;;;21.70;49.70;;;;;;20946010;28;20037;-78
2022/09/17 18:34:02;;;;;;;1.30;0.60;;;21.70;49.90;;;;;;20891908;28;20047;-79
2022/09/17 18:44:02;;;;;;;3.00;0.60;;;21.70;50.00;;;;;;20934329;28;20041;-79
2022/09/17 18:54:03;;;;;;;1.73;0.80;;;21.70;50.10;;;;;;20913108;28;20063;-78
2022/09/17 19:04:06;;;;;;;2.03;0.60;;;21.60;50.10;;;;;;20967969;28;20697;-79
2022/09/17 19:14:08;;;;;;;1.20;0.68;;;21.60;50.20;;;;;;20952690;28;20094;-79
2022/09/17 19:24:08;;;;;;;1.67;0.50;;;21.60;50.20;;;;;;20887885;28;20068;-79
2022/09/17 19:34:09;;;;;;;1.20;0.55;;;21.60;50.30;;;;;;20906736;28;20403;-78
2022/09/17 19:44:09;;;;;;;1.98;0.30;;;21.60;50.40;;;;;;20905813;28;20068;-77
2022/09/17 19:54:10;;;;;;;0.30;0.25;;;21.60;50.50;;;;;;20892816;28;20072;-78
2022/09/17 20:04:11;;;;;;;1.15;0.50;;;21.50;50.50;;;;;;20885288;28;20033;-78
2022/09/17 20:14:12;;;;;;;1.53;0.40;;;21.50;50.50;;;;;;20890536;28;20049;-78
2022/09/17 20:24:13;;;;;;;1.52;0.45;;;21.50;50.60;;;;;;20890306;28;20271;-79
2022/09/17 20:34:13;;;;;;;2.65;1.30;;;21.50;50.80;;;;;;20908093;28;20442;-78
2022/09/17 20:44:14;;;;;;;0.60;0.40;;;21.40;50.80;;;;;;20888219;28;20526;-79
2022/09/17 20:54:14;;;;;;;2.53;0.63;;;21.40;50.80;;;;;;20871724;28;20060;-78
2022/09/17 21:04:18;;;;;;;3.80;0.70;;;21.40;50.90;;;;;;20905493;28;20128;-78
2022/09/17 21:14:19;;;;;;;1.92;0.60;;;21.40;50.90;;;;;;20903761;28;20048;-79
2022/09/17 21:24:19;;;;;;;4.65;0.47;;;21.30;50.90;;;;;;20897390;28;20506;-78
2022/09/17 21:34:20;;;;;;;3.03;0.60;;;21.30;50.90;;;;;;20903938;28;20037;-78
2022/09/17 21:44:21;;;;;;;2.47;1.13;;;21.30;51.00;;;;;;20886059;28;20064;-78
2022/09/17 21:54:21;;;;;;;2.33;0.60;;;21.30;51.00;;;;;;20869709;28;20451;-78
2022/09/17 22:04:22;;;;;;;2.55;0.50;;;21.30;51.10;;;;;;20916803;28;20779;-79
2022/09/17 22:14:23;;;;;;;2.65;0.52;;;21.30;51.10;;;;;;20999932;28;20028;-77
2022/09/17 22:24:23;;;;;;;1.45;0.40;;;21.20;51.00;;;;;;20936675;28;20041;-78
2022/09/17 22:34:25;;;;;;;2.33;1.15;;;21.20;51.00;;;;;;20882848;28;20067;-78
2022/09/17 22:44:25;;;;;;;1.75;0.50;;;21.20;51.00;;;;;;20914519;28;20442;-78
2022/09/17 22:54:26;;;;;;;1.17;0.45;;;21.20;51.10;;;;;;20897297;28;20033;-77
2022/09/17 23:04:26;;;;;;;2.92;0.70;;;21.20;51.10;;;;;;20947532;28;20036;-79
2022/09/17 23:14:27;;;;;;;1.67;0.60;;;21.10;51.10;;;;;;20979039;28;20123;-77
2022/09/17 23:24:28;;;;;;;0.75;0.35;;;21.10;51.10;;;;;;20930036;28;20036;-78
2022/09/17 23:34:28;;;;;;;2.60;0.80;;;21.10;51.10;;;;;;20877667;28;20108;-78
2022/09/17 23:44:29;;;;;;;2.00;0.60;;;21.10;51.10;;;;;;20893543;28;20395;-79
2022/09/17 23:54:29;;;;;;;2.25;0.70;;;21.10;51.10;;;;;;20876784;28;20119;-79
